createdAt,value
2019-04-30T00:01:37.870Z,71.35
2019-04-30T00:04:40.504Z,72.75
2019-04-30T00:07:14.706Z,73.23
2019-04-30T00:09:41.990Z,71.60
2019-04-30T00:12:11.640Z,72.20
2019-04-30T00:14:41.409Z,74.05
2019-04-30T00:17:15.849Z,75.51
2019-04-30T00:19:42.464Z,75.90
2019-04-30T00:22:11.896Z,75.45
2019-04-30T00:24:46.782Z,73.44
2019-04-30T00:27:12.395Z,76.38
2019-04-30T00:29:41.734Z,71.97
2019-04-30T00:32:11.124Z,74.74
2019-04-30T00:34:40.620Z,74.72
2019-04-30T00:37:13.998Z,74.88
2019-04-30T00:39:44.339Z,74.48
2019-04-30T00:42:12.343Z,76.01
2019-04-30T00:44:41.725Z,74.00
2019-04-30T00:47:11.103Z,76.28
2019-04-30T00:49:40.460Z,75.18
2019-04-30T00:52:09.850Z,77.17
2019-04-30T00:54:39.277Z,76.39
2019-04-30T00:57:08.639Z,76.48
2019-04-30T00:59:39.872Z,76.46
2019-04-30T01:02:43.193Z,75.37
2019-04-30T01:05:15.733Z,73.73
2019-04-30T01:07:48.776Z,76.68
2019-04-30T01:10:19.652Z,76.70
2019-04-30T01:12:50.320Z,77.53
2019-04-30T01:15:19.025Z,75.60
2019-04-30T01:17:50.994Z,78.10
2019-04-30T01:20:24.206Z,78.91
2019-04-30T01:22:51.586Z,78.58
2019-04-30T01:25:20.947Z,74.47
2019-04-30T01:27:50.407Z,77.94
2019-04-30T01:30:22.744Z,69.43
2019-04-30T01:32:56.786Z,73.45
2019-04-30T01:35:23.904Z,78.07
2019-04-30T01:37:53.252Z,78.11
2019-04-30T01:40:22.591Z,76.57
2019-04-30T01:42:52.024Z,75.45
2019-04-30T01:45:23.199Z,74.70
2019-04-30T01:47:52.511Z,75.99
2019-04-30T01:50:21.865Z,74.38
2019-04-30T01:52:54.312Z,78.71
2019-04-30T01:55:52.594Z,75.75
2019-04-30T01:58:30.007Z,79.00
2019-04-30T02:01:02.015Z,79.29
2019-04-30T02:03:31.378Z,74.33
2019-04-30T02:06:00.728Z,77.52
2019-04-30T02:08:30.397Z,77.02
2019-04-30T02:10:59.773Z,78.70
2019-04-30T02:13:34.212Z,78.17
2019-04-30T02:16:00.257Z,77.53
2019-04-30T02:18:29.796Z,78.68
2019-04-30T02:20:59.622Z,79.01
2019-04-30T02:23:29.660Z,77.96
2019-04-30T02:25:59.377Z,79.39
2019-04-30T02:28:29.106Z,78.47
2019-04-30T02:31:00.330Z,78.39
2019-04-30T02:33:31.400Z,79.46
2019-04-30T02:36:26.007Z,77.90
2019-04-30T02:38:56.227Z,77.73
2019-04-30T02:41:26.060Z,78.77
2019-04-30T02:43:56.577Z,78.50
2019-04-30T02:46:31.949Z,79.39
2019-04-30T02:48:59.785Z,79.08
2019-04-30T02:51:30.340Z,77.88
2019-04-30T02:54:13.058Z,79.65
2019-04-30T02:56:44.281Z,79.41
2019-04-30T02:59:13.740Z,79.52
2019-04-30T03:01:43.199Z,79.04
2019-04-30T03:04:12.543Z,78.69
2019-04-30T03:06:41.983Z,76.53
2019-04-30T03:09:11.410Z,78.94
2019-04-30T03:11:41.161Z,77.11
2019-04-30T03:14:11.048Z,78.31
2019-04-30T03:17:06.433Z,77.49
2019-04-30T03:19:53.216Z,79.02
2019-04-30T03:22:25.093Z,78.18
2019-04-30T03:24:54.497Z,78.98
2019-04-30T03:27:24.826Z,76.69
2019-04-30T03:29:54.427Z,78.34
2019-04-30T03:32:23.795Z,79.22
2019-04-30T03:34:53.165Z,77.62
2019-04-30T03:37:22.531Z,78.79
2019-04-30T03:39:51.891Z,80.23
2019-04-30T03:42:21.240Z,79.30
2019-04-30T03:44:50.623Z,79.49
2019-04-30T03:47:20.402Z,79.82
2019-04-30T03:49:50.104Z,72.78
2019-04-30T03:52:19.912Z,79.89
2019-04-30T03:54:49.549Z,80.60
2019-04-30T03:57:20.575Z,81.54
2019-04-30T03:59:50.254Z,80.34
2019-04-30T04:02:37.254Z,80.26
2019-04-30T04:05:29.919Z,80.91
2019-04-30T04:08:21.280Z,78.22
2019-04-30T04:10:54.779Z,80.60
2019-04-30T04:13:24.131Z,80.25
2019-04-30T04:15:53.503Z,80.43
2019-04-30T04:18:22.912Z,80.77
2019-04-30T04:21:07.520Z,80.33
2019-04-30T04:23:23.347Z,64.66
2019-04-30T04:25:52.784Z,73.73
2019-04-30T04:28:22.152Z,75.82
2019-04-30T04:30:51.552Z,75.69
2019-04-30T04:33:20.924Z,76.22
2019-04-30T04:35:50.280Z,76.22
2019-04-30T04:38:20.345Z,76.80
2019-04-30T04:40:50.417Z,76.57
2019-04-30T04:43:20.330Z,76.44
2019-04-30T04:45:50.207Z,71.35
2019-04-30T04:48:22.984Z,69.72
2019-04-30T04:50:50.734Z,68.57
2019-04-30T04:53:20.217Z,73.63
2019-04-30T04:55:50.064Z,73.18
2019-04-30T05:00:49.692Z,77.34
2019-04-30T05:03:24.486Z,77.70
2019-04-30T05:05:53.848Z,78.77
2019-04-30T05:08:23.286Z,76.31
2019-04-30T05:10:52.670Z,72.76
2019-04-30T05:13:22.044Z,71.31
2019-04-30T05:15:51.702Z,69.32
2019-04-30T05:18:22.723Z,66.26
2019-04-30T05:20:52.314Z,62.75
2019-04-30T05:23:22.020Z,64.21
2019-04-30T05:25:51.703Z,63.57
2019-04-30T05:28:21.157Z,55.00
2019-04-30T05:30:50.524Z,58.77
2019-04-30T05:33:19.879Z,51.09
2019-04-30T05:35:49.635Z,51.36
2019-04-30T05:38:19.092Z,50.85
2019-04-30T05:40:49.604Z,50.51
2019-04-30T05:43:19.318Z,51.96
2019-04-30T05:45:49.204Z,54.97
2019-04-30T05:48:18.792Z,52.97
2019-04-30T05:50:51.529Z,48.71
2019-04-30T05:53:19.287Z,49.74
2019-04-30T05:55:49.352Z,57.03
2019-04-30T05:58:19.715Z,48.28
2019-04-30T06:00:49.947Z,50.29
2019-04-30T06:03:27.749Z,51.10
2019-04-30T06:05:50.695Z,55.27
2019-04-30T06:08:22.369Z,52.38
2019-04-30T06:10:59.631Z,56.43
2019-04-30T06:13:38.381Z,48.56
2019-04-30T06:16:11.020Z,52.28
2019-04-30T06:18:42.220Z,47.84
2019-04-30T06:21:11.792Z,47.51
2019-04-30T06:23:41.238Z,47.90
2019-04-30T06:26:13.206Z,46.85
2019-04-30T06:28:42.012Z,46.50
2019-04-30T06:31:11.477Z,50.02
2019-04-30T06:33:41.209Z,48.53
2019-04-30T06:36:11.650Z,53.52
2019-04-30T06:38:41.109Z,46.70
2019-04-30T06:41:10.487Z,46.60
2019-04-30T06:43:40.148Z,46.27
2019-04-30T06:46:09.596Z,46.75
2019-04-30T06:48:39.267Z,46.87
2019-04-30T06:51:10.302Z,46.57
2019-04-30T06:53:39.708Z,46.61
2019-04-30T06:56:09.043Z,46.06
2019-04-30T06:58:38.850Z,46.45
2019-04-30T07:01:09.687Z,46.44
2019-04-30T07:03:39.099Z,46.25
2019-04-30T07:06:08.497Z,48.27
2019-04-30T07:08:55.700Z,47.68
2019-04-30T07:11:34.823Z,46.16
2019-04-30T07:14:04.367Z,46.13
2019-04-30T07:16:33.718Z,45.47
2019-04-30T07:19:03.128Z,45.74
2019-04-30T07:21:36.381Z,45.94
2019-04-30T07:24:03.704Z,54.08
2019-04-30T07:26:33.071Z,52.31
2019-04-30T07:29:02.731Z,52.98
2019-04-30T07:31:32.112Z,46.59
2019-04-30T07:34:01.553Z,50.86
2019-04-30T07:36:45.921Z,48.92
2019-04-30T07:39:02.060Z,52.18
2019-04-30T07:41:31.447Z,46.86
2019-04-30T07:44:00.888Z,55.14
2019-04-30T07:46:35.270Z,51.05
2019-04-30T07:49:01.299Z,50.16
2019-04-30T07:51:33.424Z,51.59
2019-04-30T07:54:02.118Z,55.09
2019-04-30T07:56:37.184Z,59.80
2019-04-30T07:59:02.897Z,58.46
2019-04-30T08:01:32.324Z,48.66
2019-04-30T08:04:15.067Z,49.03
2019-04-30T08:06:44.490Z,56.22
2019-04-30T08:09:13.900Z,49.16
2019-04-30T08:11:43.830Z,45.97
2019-04-30T08:14:13.290Z,47.62
2019-04-30T08:16:42.908Z,46.41
2019-04-30T08:19:12.288Z,52.41
2019-04-30T08:21:41.778Z,45.90
2019-04-30T08:24:11.271Z,46.38
2019-04-30T08:26:40.661Z,46.73
2019-04-30T08:29:09.988Z,50.08
2019-04-30T08:31:40.909Z,45.92
2019-04-30T08:34:10.969Z,45.95
2019-04-30T08:36:40.440Z,45.21
2019-04-30T08:39:09.889Z,44.95
2019-04-30T08:41:39.358Z,45.68
2019-04-30T08:44:09.397Z,45.16
2019-04-30T08:46:38.892Z,44.59
2019-04-30T08:49:09.822Z,44.88
2019-04-30T08:51:39.997Z,45.21
2019-04-30T08:54:09.800Z,44.70
2019-04-30T08:56:39.166Z,46.32
2019-04-30T08:59:11.110Z,48.08
2019-04-30T09:01:39.787Z,45.42
2019-04-30T09:04:10.505Z,44.91
2019-04-30T09:06:40.186Z,45.45
2019-04-30T09:09:29.568Z,44.67
2019-04-30T09:11:59.333Z,45.72
2019-04-30T09:14:29.687Z,44.60
2019-04-30T09:16:59.659Z,47.34
2019-04-30T09:19:29.777Z,45.30
2019-04-30T09:21:59.520Z,46.51
2019-04-30T09:24:30.961Z,45.06
2019-04-30T09:27:00.039Z,45.18
2019-04-30T09:29:29.433Z,44.03
2019-04-30T09:31:59.540Z,43.94
2019-04-30T09:34:29.317Z,45.05
2019-04-30T09:36:59.325Z,44.44
2019-04-30T09:39:29.712Z,44.34
2019-04-30T09:42:00.826Z,45.26
2019-04-30T09:44:30.945Z,44.94
2019-04-30T09:47:00.743Z,43.76
2019-04-30T09:49:30.527Z,43.69
2019-04-30T09:52:00.691Z,45.84
2019-04-30T09:54:31.510Z,43.76
2019-04-30T09:57:09.107Z,43.55
2019-04-30T09:59:38.807Z,44.68
2019-04-30T10:02:09.273Z,43.76
2019-04-30T10:04:39.787Z,43.03
2019-04-30T10:07:09.776Z,42.97
2019-04-30T10:09:39.169Z,43.42
2019-04-30T10:12:15.551Z,42.89
2019-04-30T10:14:44.996Z,42.62
2019-04-30T10:17:24.137Z,42.60
2019-04-30T10:19:53.528Z,42.71
2019-04-30T10:22:22.903Z,43.27
2019-04-30T10:24:53.905Z,43.72
2019-04-30T10:27:23.781Z,42.58
2019-04-30T10:29:53.163Z,43.58
2019-04-30T10:32:22.611Z,44.54
2019-04-30T10:34:51.989Z,43.37
2019-04-30T10:37:38.775Z,45.10
2019-04-30T10:40:10.284Z,42.56
2019-04-30T10:42:39.878Z,42.41
2019-04-30T10:45:09.948Z,42.24
2019-04-30T10:47:39.527Z,42.51
2019-04-30T10:50:09.893Z,42.49
2019-04-30T10:52:39.534Z,42.28
2019-04-30T10:55:09.351Z,43.70
2019-04-30T10:57:39.637Z,43.96
2019-04-30T11:00:12.639Z,44.96
2019-04-30T11:02:42.087Z,42.08
2019-04-30T11:05:12.533Z,42.84
2019-04-30T11:07:42.253Z,42.61
2019-04-30T11:10:11.778Z,42.08
2019-04-30T11:12:41.224Z,43.36
2019-04-30T11:15:11.262Z,42.07
2019-04-30T11:17:40.846Z,40.46
2019-04-30T11:20:10.853Z,40.79
2019-04-30T11:22:40.592Z,40.94
2019-04-30T11:25:10.493Z,41.34
2019-04-30T11:27:41.363Z,41.38
2019-04-30T11:30:20.479Z,41.42
2019-04-30T11:32:46.015Z,41.57
2019-04-30T11:35:18.446Z,44.32
2019-04-30T11:37:47.531Z,39.84
2019-04-30T11:40:31.136Z,37.02
2019-04-30T11:42:51.421Z,39.04
2019-04-30T11:45:22.547Z,42.05
2019-04-30T11:47:54.089Z,42.21
2019-04-30T11:50:23.534Z,39.94
2019-04-30T11:52:52.950Z,42.50
2019-04-30T11:55:22.353Z,39.73
2019-04-30T11:57:51.780Z,45.85
2019-04-30T12:00:29.552Z,39.34
2019-04-30T12:02:59.354Z,38.19
2019-04-30T12:05:29.076Z,36.84
2019-04-30T12:08:26.389Z,36.93
2019-04-30T12:11:04.719Z,34.00
2019-04-30T12:13:34.244Z,35.90
2019-04-30T12:16:04.077Z,36.10
2019-04-30T12:18:33.432Z,37.61
2019-04-30T12:21:02.903Z,42.29
2019-04-30T12:23:32.341Z,44.41
2019-04-30T12:26:03.001Z,37.91
2019-04-30T12:28:32.678Z,41.55
2019-04-30T12:31:02.182Z,39.86
2019-04-30T12:33:31.723Z,38.17
2019-04-30T12:36:01.595Z,40.51
2019-04-30T12:38:30.992Z,39.74
2019-04-30T12:41:00.460Z,38.53
2019-04-30T12:43:29.917Z,41.02
2019-04-30T12:46:04.920Z,45.22
2019-04-30T12:48:55.994Z,39.69
2019-04-30T12:51:45.606Z,41.60
2019-04-30T12:54:17.813Z,38.73
2019-04-30T12:57:04.307Z,38.69
2019-04-30T12:59:33.866Z,42.25
2019-04-30T13:02:03.457Z,37.89
2019-04-30T13:04:32.970Z,38.43
2019-04-30T13:07:03.221Z,40.34
2019-04-30T13:09:33.819Z,39.22
2019-04-30T13:12:04.324Z,38.85
2019-04-30T13:14:36.961Z,39.21
2019-04-30T13:17:07.342Z,38.82
2019-04-30T13:19:36.601Z,39.71
2019-04-30T13:22:06.104Z,39.26
2019-04-30T13:24:35.693Z,38.95
2019-04-30T13:27:05.280Z,39.56
2019-04-30T13:29:41.679Z,39.53
2019-04-30T13:32:11.155Z,39.81
2019-04-30T13:34:51.169Z,39.51
2019-04-30T13:37:20.677Z,39.38
2019-04-30T13:40:07.910Z,39.60
2019-04-30T13:42:40.819Z,39.66
2019-04-30T13:45:10.448Z,39.74
2019-04-30T13:47:39.973Z,39.93
2019-04-30T13:50:09.592Z,39.81
2019-04-30T13:52:39.211Z,40.17
2019-04-30T13:55:10.692Z,40.31
2019-04-30T13:57:39.922Z,39.70
2019-04-30T14:00:11.613Z,40.43
2019-04-30T14:02:44.972Z,40.21
2019-04-30T14:05:15.754Z,39.75
2019-04-30T14:07:55.907Z,40.70
2019-04-30T14:10:25.445Z,40.05
2019-04-30T14:12:57.925Z,40.13
2019-04-30T14:15:29.224Z,39.97
2019-04-30T14:17:59.695Z,40.07
2019-04-30T14:20:29.358Z,40.25
2019-04-30T14:22:58.829Z,40.58
2019-04-30T14:25:28.663Z,40.42
2019-04-30T14:27:59.289Z,40.21
2019-04-30T14:30:29.288Z,41.72
2019-04-30T14:32:59.425Z,40.03
2019-04-30T14:35:31.006Z,41.07
2019-04-30T14:38:00.791Z,41.23
2019-04-30T14:40:31.065Z,41.54
2019-04-30T14:43:12.757Z,41.25
2019-04-30T14:46:01.703Z,40.35
2019-04-30T14:48:39.933Z,41.09
2019-04-30T14:51:08.338Z,41.14
2019-04-30T14:53:51.381Z,40.73
2019-04-30T14:56:29.794Z,40.51
2019-04-30T14:59:24.093Z,41.45
2019-04-30T15:02:01.166Z,40.61
2019-04-30T15:04:30.685Z,40.35
2019-04-30T15:07:00.244Z,41.00
2019-04-30T15:09:29.723Z,40.47
2019-04-30T15:11:59.173Z,41.45
2019-04-30T15:14:28.608Z,41.92
2019-04-30T15:16:58.135Z,41.25
2019-04-30T15:19:27.733Z,41.69
2019-04-30T15:22:00.438Z,41.29
2019-04-30T15:24:34.292Z,40.82
2019-04-30T15:27:03.971Z,41.14
2019-04-30T15:29:33.418Z,40.12
2019-04-30T15:32:02.947Z,40.89
2019-04-30T15:34:32.343Z,40.09
2019-04-30T15:37:01.817Z,40.34
2019-04-30T15:39:39.502Z,40.59
2019-04-30T15:42:09.313Z,40.91
2019-04-30T15:44:40.645Z,40.76
2019-04-30T15:47:10.154Z,41.81
2019-04-30T15:49:39.796Z,41.63
2019-04-30T15:52:11.013Z,39.20
2019-04-30T15:54:41.075Z,40.27
2019-04-30T15:57:10.605Z,38.76
2019-04-30T15:59:44.075Z,38.04
2019-04-30T16:02:38.841Z,38.05
2019-04-30T16:05:39.768Z,37.25
2019-04-30T16:08:43.321Z,36.67
2019-04-30T16:11:19.535Z,37.71
2019-04-30T16:14:20.445Z,37.92
2019-04-30T16:16:57.277Z,38.26
2019-04-30T16:19:28.716Z,37.35
2019-04-30T16:21:58.066Z,37.63
2019-04-30T16:24:28.716Z,39.30
2019-04-30T16:26:59.328Z,39.11
2019-04-30T16:29:29.085Z,39.22
2019-04-30T16:31:59.202Z,39.06
2019-04-30T16:34:30.467Z,39.11
2019-04-30T16:37:00.188Z,38.50
2019-04-30T16:39:29.646Z,39.25
2019-04-30T16:41:59.332Z,40.75
2019-04-30T16:44:28.757Z,38.98
2019-04-30T16:46:59.633Z,39.94
2019-04-30T16:49:29.322Z,39.01
2019-04-30T16:52:01.452Z,37.28
2019-04-30T16:54:30.048Z,38.73
2019-04-30T16:57:04.110Z,39.81
2019-04-30T16:59:50.092Z,38.98
2019-04-30T17:02:21.554Z,38.93
2019-04-30T17:05:01.694Z,39.38
2019-04-30T17:07:50.632Z,38.94
2019-04-30T17:10:42.560Z,38.97
2019-04-30T17:13:26.308Z,39.70
2019-04-30T17:15:59.545Z,40.34
2019-04-30T17:18:29.758Z,40.71
2019-04-30T17:20:59.496Z,40.22
2019-04-30T17:23:29.371Z,40.90
2019-04-30T17:25:59.273Z,41.14
2019-04-30T17:28:28.676Z,41.43
2019-04-30T17:30:58.923Z,41.27
2019-04-30T17:33:28.446Z,41.71
2019-04-30T17:35:57.988Z,41.15
2019-04-30T17:38:27.385Z,41.29
2019-04-30T17:40:56.784Z,41.00
2019-04-30T17:43:26.175Z,41.11
2019-04-30T17:45:55.646Z,40.78
2019-04-30T17:48:25.037Z,41.59
2019-04-30T17:50:54.399Z,42.49
2019-04-30T17:53:23.959Z,41.48
2019-04-30T17:55:53.481Z,42.50
2019-04-30T17:58:22.823Z,44.00
2019-04-30T18:00:55.060Z,44.86
2019-04-30T18:03:24.496Z,45.51
2019-04-30T18:05:54.269Z,45.29
2019-04-30T18:08:23.727Z,46.13
2019-04-30T18:10:53.182Z,46.81
2019-04-30T18:13:22.776Z,47.32
2019-04-30T18:15:52.266Z,46.44
2019-04-30T18:18:27.293Z,47.92
2019-04-30T18:21:19.060Z,47.72
2019-04-30T18:24:08.553Z,48.67
2019-04-30T18:26:42.999Z,48.29
2019-04-30T18:29:12.404Z,48.24
2019-04-30T18:31:41.789Z,48.49
2019-04-30T18:34:11.320Z,49.47
2019-04-30T18:36:40.683Z,48.49
2019-04-30T18:39:10.100Z,49.39
2019-04-30T18:41:40.205Z,50.02
2019-04-30T18:44:09.636Z,49.95
2019-04-30T18:46:39.147Z,51.58
2019-04-30T18:49:10.340Z,51.57
2019-04-30T18:51:42.728Z,51.69
2019-04-30T18:54:10.915Z,51.53
2019-04-30T18:56:40.284Z,50.46
2019-04-30T18:59:09.981Z,50.90
2019-04-30T19:01:39.347Z,51.09
2019-04-30T19:04:09.175Z,51.99
2019-04-30T19:06:38.676Z,52.08
2019-04-30T19:09:29.499Z,51.92
2019-04-30T19:12:11.220Z,52.78
2019-04-30T19:14:49.486Z,52.93
2019-04-30T19:17:34.358Z,52.45
2019-04-30T19:20:21.552Z,52.20
2019-04-30T19:22:51.084Z,53.07
2019-04-30T19:25:20.546Z,52.45
2019-04-30T19:27:49.943Z,51.92
2019-04-30T19:30:19.591Z,52.61
2019-04-30T19:32:49.246Z,52.68
2019-04-30T19:35:18.826Z,52.01
2019-04-30T19:37:48.762Z,51.60
2019-04-30T19:40:19.032Z,51.19
2019-04-30T19:42:50.848Z,50.79
2019-04-30T19:45:20.051Z,49.79
2019-04-30T19:47:49.529Z,49.21
2019-04-30T19:50:19.314Z,48.52
2019-04-30T19:52:48.793Z,49.26
2019-04-30T19:55:20.440Z,49.96
2019-04-30T19:57:51.086Z,49.36
2019-04-30T20:00:21.271Z,48.97
2019-04-30T20:02:50.711Z,48.80
2019-04-30T20:05:20.148Z,49.63
2019-04-30T20:07:49.542Z,50.19
2019-04-30T20:10:19.556Z,50.00
2019-04-30T20:12:49.786Z,51.23
2019-04-30T20:15:22.191Z,51.44
2019-04-30T20:17:50.382Z,50.22
2019-04-30T20:20:19.811Z,49.81
2019-04-30T20:22:51.869Z,50.73
2019-04-30T20:25:20.255Z,51.48
2019-04-30T20:27:49.665Z,51.81
2019-04-30T20:30:19.535Z,51.51
2019-04-30T20:32:51.194Z,51.07
2019-04-30T20:35:20.198Z,50.81
2019-04-30T20:38:09.395Z,50.24
2019-04-30T20:40:43.602Z,50.14
2019-04-30T20:43:11.206Z,49.87
2019-04-30T20:45:40.564Z,49.40
2019-04-30T20:48:09.939Z,49.36
2019-04-30T20:50:39.279Z,48.97
2019-04-30T20:53:08.895Z,48.90
2019-04-30T20:55:38.811Z,48.75
2019-04-30T20:58:09.642Z,48.72
2019-04-30T21:00:39.085Z,48.89
2019-04-30T21:03:09.696Z,49.03
2019-04-30T21:05:39.340Z,49.35
2019-04-30T21:08:08.768Z,49.64
2019-04-30T21:10:39.660Z,50.25
2019-04-30T21:13:11.147Z,50.22
2019-04-30T21:15:40.357Z,51.01
2019-04-30T21:18:09.707Z,51.52
2019-04-30T21:20:39.068Z,51.87
2019-04-30T21:23:09.437Z,51.43
2019-04-30T21:25:38.958Z,50.99
2019-04-30T21:28:09.733Z,51.01
2019-04-30T21:30:39.231Z,51.88
2019-04-30T21:33:19.359Z,51.42
2019-04-30T21:35:54.661Z,52.28
2019-04-30T21:38:24.051Z,52.37
2019-04-30T21:40:53.510Z,51.97
2019-04-30T21:43:22.884Z,51.28
2019-04-30T21:45:52.223Z,51.97
2019-04-30T21:48:21.579Z,52.35
2019-04-30T21:50:50.936Z,52.04
2019-04-30T21:53:20.298Z,52.02
2019-04-30T21:55:49.834Z,52.29
2019-04-30T21:58:20.366Z,52.08
2019-04-30T22:01:18.676Z,52.25
2019-04-30T22:03:48.262Z,52.35
2019-04-30T22:06:19.474Z,52.40
2019-04-30T22:08:49.026Z,51.52
2019-04-30T22:11:19.766Z,50.76
2019-04-30T22:13:49.527Z,50.52
2019-04-30T22:16:20.428Z,50.15
2019-04-30T22:18:50.376Z,49.94
2019-04-30T22:21:19.742Z,50.78
2019-04-30T22:23:49.095Z,51.53
2019-04-30T22:26:18.465Z,51.33
2019-04-30T22:28:49.395Z,52.20
2019-04-30T22:31:19.794Z,52.45
2019-04-30T22:33:49.524Z,52.34
2019-04-30T22:36:28.998Z,51.68
2019-04-30T22:39:12.002Z,52.53
2019-04-30T22:41:41.532Z,56.01
2019-04-30T22:44:10.956Z,55.57
2019-04-30T22:46:40.320Z,55.73
2019-04-30T22:49:09.837Z,56.03
2019-04-30T22:51:39.642Z,54.71
2019-04-30T22:54:08.995Z,54.32
2019-04-30T22:56:38.485Z,55.55
2019-04-30T22:59:07.804Z,56.25
2019-04-30T23:01:55.245Z,54.42
2019-04-30T23:04:34.565Z,55.11
2019-04-30T23:07:03.998Z,53.96
2019-04-30T23:09:33.363Z,55.14
2019-04-30T23:12:03.328Z,52.83
2019-04-30T23:14:32.760Z,54.57
2019-04-30T23:17:02.205Z,52.89
2019-04-30T23:19:31.641Z,52.12
2019-04-30T23:22:01.668Z,52.19
2019-04-30T23:24:31.042Z,51.39
2019-04-30T23:27:00.430Z,51.24
2019-04-30T23:29:29.882Z,50.77
2019-04-30T23:31:59.330Z,50.50
2019-04-30T23:34:28.712Z,51.40
2019-04-30T23:36:58.075Z,52.62
2019-04-30T23:39:27.419Z,52.30
2019-04-30T23:41:56.877Z,51.30
2019-04-30T23:44:26.229Z,52.00
2019-04-30T23:46:55.591Z,52.79
2019-04-30T23:49:25.111Z,55.33
2019-04-30T23:51:54.549Z,56.59
2019-04-30T23:54:23.921Z,54.36
2019-04-30T23:56:53.289Z,52.44
2019-04-30T23:59:22.652Z,51.23
